Terminal Aerodrome Forecast
Issued by NWS

Home | Current Version | Previous Version | Text Only | Print | Product List | Glossary On
Versions: 1 2 3 4 5 6 7 8 9 10 11 12 13 14
573
FTUS45 KVEF 231137
TAFHND
TAF
KHND 231137Z 2312/2412 21025G35KT P6SM VCSH SCT040 BKN060
      TEMPO 2312/2314 -SHRA BKN040
     FM231400 22028G38KT P6SM VCSH SCT040 BKN060
     FM231800 23028G38KT P6SM SCT050 BKN080
     FM240300 22012KT P6SM BKN100
     FM241000 20008KT P6SM FEW100=

USA.gov is the U.S. government's official web portal to all federal, state and local government web resources and services.